Time;durP1;ratioP1;P1;durP2;ratioP2;P2;SDS_P1;SDS_P2;PMS_P1;PMS_P2;Temp;Humidity;BMP_temperature;BMP_pressure;BME280_temperature;BME280_humidity;BME280_pressure;Samples;Min_cycle;Max_cycle;Signal;HPM_P1;HPM_P2
2023/01/11 00:01:52;;;;;;;12.30;9.13;;;9.50;99.90;;;;;;5077562;28;20197;-78
2023/01/11 00:04:18;;;;;;;10.77;7.80;;;9.60;99.90;;;;;;5092359;28;20226;-78
2023/01/11 00:06:45;;;;;;;10.60;8.07;;;9.50;99.90;;;;;;5056240;28;20063;-78
2023/01/11 00:09:19;;;;;;;9.88;7.75;;;9.60;99.90;;;;;;5092396;28;20032;-78
2023/01/11 00:11:44;;;;;;;7.07;5.97;;;9.60;99.90;;;;;;5078220;28;20036;-79
2023/01/11 00:14:10;;;;;;;10.95;7.32;;;9.70;99.90;;;;;;5075424;28;20078;-77
2023/01/11 00:16:36;;;;;;;9.82;7.18;;;9.60;99.90;;;;;;5042887;28;20145;-78
2023/01/11 00:19:02;;;;;;;9.38;7.68;;;9.70;99.90;;;;;;5065395;28;20203;-78
2023/01/11 00:21:31;;;;;;;9.18;7.78;;;9.80;99.90;;;;;;5084873;28;20028;-78
2023/01/11 00:23:56;;;;;;;10.00;7.45;;;9.60;99.90;;;;;;5059751;28;20051;-78
2023/01/11 00:26:27;;;;;;;9.82;6.70;;;9.80;99.90;;;;;;5081394;28;20374;-78
2023/01/11 00:28:55;;;;;;;9.80;7.55;;;11.20;99.90;;;;;;5073525;28;20028;-78
2023/01/11 00:31:21;;;;;;;10.88;6.88;;;11.60;99.90;;;;;;5082292;28;20504;-78
2023/01/11 00:33:47;;;;;;;10.02;6.93;;;9.70;99.90;;;;;;5077911;28;20039;-78
2023/01/11 00:36:15;;;;;;;9.65;7.68;;;9.80;99.90;;;;;;5081167;28;20222;-78
2023/01/11 00:38:45;;;;;;;10.52;7.38;;;9.90;99.90;;;;;;5089134;27;20031;-78
2023/01/11 00:49:29;;;;;;;8.27;6.10;;;10.00;99.90;;;;;;5097889;27;20094;-77
2023/01/11 00:51:55;;;;;;;7.57;5.45;;;9.80;99.90;;;;;;5086428;28;20114;-78
2023/01/11 00:54:20;;;;;;;9.10;6.50;;;9.90;99.90;;;;;;5085242;28;20112;-78
2023/01/11 00:56:46;;;;;;;7.85;5.90;;;10.10;99.90;;;;;;5099273;28;20043;-78
2023/01/11 00:59:15;;;;;;;8.50;6.82;;;10.10;99.90;;;;;;5064023;28;20023;-78
2023/01/11 01:01:40;;;;;;;8.93;7.07;;;10.20;99.90;;;;;;5097402;28;20081;-79
2023/01/11 01:04:06;;;;;;;7.38;5.47;;;9.90;99.90;;;;;;5049248;28;20087;-78
2023/01/11 01:06:32;;;;;;;7.70;5.97;;;10.00;99.90;;;;;;5083926;28;20075;-79
2023/01/11 01:08:58;;;;;;;9.10;6.38;;;10.20;99.90;;;;;;5082368;28;20108;-77
2023/01/11 01:11:23;;;;;;;8.07;6.60;;;10.10;99.90;;;;;;5088138;28;20027;-78
2023/01/11 01:16:33;;;;;;;7.55;5.82;;;10.00;99.90;;;;;;5101055;28;20032;-77
2023/01/11 01:18:59;;;;;;;6.38;4.95;;;10.00;99.90;;;;;;5097334;28;20094;-77
2023/01/11 01:21:26;;;;;;;8.07;6.13;;;10.20;99.90;;;;;;5071380;28;20203;-77
2023/01/11 01:23:56;;;;;;;8.45;6.13;;;10.10;99.90;;;;;;5088340;28;20116;-77
2023/01/11 01:26:22;;;;;;;8.75;6.20;;;10.10;99.90;;;;;;5071356;28;20032;-77
2023/01/11 01:28:49;;;;;;;8.00;5.38;;;10.10;99.90;;;;;;5087098;28;20098;-77
2023/01/11 01:31:15;;;;;;;6.47;4.80;;;10.20;99.90;;;;;;5104037;28;20245;-78
2023/01/11 01:33:41;;;;;;;5.90;4.68;;;10.10;99.90;;;;;;5105943;28;20061;-77
2023/01/11 01:36:08;;;;;;;8.23;6.25;;;10.10;99.90;;;;;;5084804;27;20030;-77
2023/01/11 01:38:33;;;;;;;8.07;5.38;;;10.40;99.90;;;;;;5087572;28;20051;-77
2023/01/11 01:40:59;;;;;;;6.15;4.75;;;10.40;99.90;;;;;;5087340;28;20369;-77
2023/01/11 01:43:49;;;;;;;7.28;5.13;;;10.40;99.90;;;;;;5088477;28;20160;-76
2023/01/11 01:46:16;;;;;;;6.97;5.32;;;10.50;99.90;;;;;;5087972;28;20035;-77
2023/01/11 01:48:45;;;;;;;8.00;5.50;;;10.50;99.90;;;;;;5101072;28;20210;-77
2023/01/11 01:51:17;;;;;;;6.88;5.20;;;10.30;99.90;;;;;;5102141;28;20173;-77
2023/01/11 01:53:48;;;;;;;7.35;5.57;;;10.50;99.90;;;;;;5086865;28;20032;-78
2023/01/11 01:56:27;;;;;;;6.43;5.10;;;10.60;99.90;;;;;;5100636;28;20032;-78
2023/01/11 01:59:05;;;;;;;8.13;5.45;;;10.50;99.90;;;;;;5085220;27;20040;-77
2023/01/11 02:01:45;;;;;;;8.30;5.93;;;10.50;99.90;;;;;;5075680;28;20110;-78
2023/01/11 02:04:33;;;;;;;7.57;5.15;;;10.40;99.90;;;;;;5071256;28;20031;-79
2023/01/11 02:07:05;;;;;;;6.50;5.22;;;10.50;99.90;;;;;;5071911;28;20032;-79
2023/01/11 02:09:51;;;;;;;7.32;5.05;;;10.70;99.90;;;;;;5073315;28;20035;-79
2023/01/11 02:12:18;;;;;;;5.80;4.38;;;10.50;99.90;;;;;;5103480;28;20032;-79
2023/01/11 02:14:46;;;;;;;6.82;4.63;;;10.80;99.90;;;;;;5103312;28;20028;-79
2023/01/11 02:17:12;;;;;;;5.65;4.20;;;10.80;99.90;;;;;;5102997;28;20040;-80
2023/01/11 02:19:50;;;;;;;7.22;4.65;;;10.80;99.90;;;;;;5085300;28;20211;-77
2023/01/11 02:22:21;;;;;;;6.20;4.63;;;10.80;99.90;;;;;;5084161;28;20288;-79
2023/01/11 02:25:12;;;;;;;6.30;4.22;;;10.80;99.90;;;;;;5075040;28;20085;-79
2023/01/11 02:28:08;;;;;;;4.85;3.97;;;10.90;99.90;;;;;;5103486;28;20058;-78
2023/01/11 02:30:58;;;;;;;6.43;4.13;;;10.70;99.90;;;;;;5085536;28;20035;-79
2023/01/11 02:33:47;;;;;;;4.93;3.70;;;10.90;99.90;;;;;;5075270;28;20319;-78
2023/01/11 02:36:43;;;;;;;7.13;4.22;;;10.80;99.90;;;;;;5069002;28;20384;-78
2023/01/11 02:39:38;;;;;;;6.00;3.72;;;10.70;99.90;;;;;;5084096;28;20072;-78
2023/01/11 02:45:14;;;;;;;5.90;3.80;;;11.00;99.90;;;;;;5097560;28;20375;-78
2023/01/11 02:47:50;;;;;;;5.40;4.60;;;10.80;99.90;;;;;;5102834;28;20024;-77
2023/01/11 02:50:20;;;;;;;4.72;4.00;;;11.00;99.90;;;;;;5102146;28;20326;-78
2023/01/11 02:53:17;;;;;;;4.35;3.40;;;10.90;99.90;;;;;;5103034;28;20131;-78
2023/01/11 02:55:47;;;;;;;4.25;3.28;;;11.00;99.90;;;;;;5102577;28;20041;-77
2023/01/11 02:58:15;;;;;;;5.53;3.60;;;11.10;99.90;;;;;;5103548;28;20031;-78
2023/01/11 03:00:42;;;;;;;4.10;3.13;;;11.10;99.90;;;;;;5100134;28;20352;-79
2023/01/11 03:03:15;;;;;;;5.25;3.33;;;11.10;99.90;;;;;;5048509;28;20183;-77
2023/01/11 03:05:52;;;;;;;3.83;2.80;;;11.00;99.90;;;;;;5098595;28;20405;-76
2023/01/11 03:08:44;;;;;;;5.57;3.40;;;11.20;99.90;;;;;;5067874;28;20042;-78
2023/01/11 03:12:50;;;;;;;3.80;2.90;;;11.00;99.90;;;;;;5079247;28;20035;-79
2023/01/11 03:14:16;;;;;;;3.47;3.00;;;11.00;99.90;;;;;;5101663;27;20341;-79
2023/01/11 03:17:01;;;;;;;3.88;3.40;;;11.10;99.90;;;;;;5085808;28;20218;-78
2023/01/11 03:19:49;;;;;;;4.47;2.80;;;11.20;99.90;;;;;;5084339;28;20133;-81
2023/01/11 03:22:29;;;;;;;5.38;3.20;;;11.20;99.90;;;;;;5099317;28;20075;-80
2023/01/11 03:25:30;;;;;;;6.40;3.00;;;11.00;99.90;;;;;;5091291;28;20253;-80
2023/01/11 03:28:06;;;;;;;3.42;2.88;;;11.20;99.90;;;;;;5067155;28;20040;-80
2023/01/11 03:30:47;;;;;;;4.65;2.40;;;11.10;99.90;;;;;;5083158;28;20043;-81
2023/01/11 03:33:42;;;;;;;2.85;2.22;;;11.10;99.90;;;;;;5080123;28;20043;-81
2023/01/11 03:36:38;;;;;;;3.72;2.10;;;11.30;99.90;;;;;;5095180;28;20069;-81
2023/01/11 03:39:23;;;;;;;2.33;1.90;;;11.10;99.90;;;;;;5077820;28;20055;-81
2023/01/11 03:41:56;;;;;;;2.95;1.63;;;11.20;99.90;;;;;;5072762;28;20040;-80
2023/01/11 03:44:24;;;;;;;2.75;1.70;;;11.30;99.90;;;;;;5081410;28;20242;-80
2023/01/11 03:46:54;;;;;;;2.17;1.60;;;11.30;99.90;;;;;;5100794;28;20036;-80
2023/01/11 03:49:41;;;;;;;2.25;1.40;;;11.20;99.90;;;;;;5077845;28;20100;-80
2023/01/11 03:52:11;;;;;;;1.85;1.40;;;11.20;99.90;;;;;;5072766;28;20088;-79
2023/01/11 03:54:39;;;;;;;3.40;1.40;;;11.20;99.90;;;;;;5095235;28;20199;-79
2023/01/11 03:57:22;;;;;;;1.85;1.70;;;11.40;99.90;;;;;;5082807;28;20028;-79
2023/01/11 03:59:49;;;;;;;2.85;1.40;;;11.30;99.90;;;;;;5093914;28;20107;-80
2023/01/11 04:02:26;;;;;;;2.75;2.00;;;11.30;99.90;;;;;;5080616;28;20028;-79
2023/01/11 04:04:52;;;;;;;9.30;2.40;;;11.30;99.90;;;;;;5079262;28;20353;-78
2023/01/11 04:07:17;;;;;;;3.05;2.22;;;11.30;99.90;;;;;;5063832;28;20028;-80
2023/01/11 04:09:52;;;;;;;4.13;2.55;;;11.50;99.90;;;;;;5078711;28;20117;-79
2023/01/11 04:12:18;;;;;;;;;;;11.30;99.90;;;;;;5048386;28;20036;-81
2023/01/11 04:14:46;;;;;;;5.40;2.88;;;11.50;99.90;;;;;;5073475;28;20260;-81
2023/01/11 04:17:12;;;;;;;6.30;3.20;;;11.60;99.90;;;;;;5073960;28;20052;-80
2023/01/11 04:19:37;;;;;;;9.25;3.38;;;11.30;99.90;;;;;;5046869;28;20109;-80
2023/01/11 04:22:04;;;;;;;7.75;3.65;;;11.40;99.90;;;;;;5082204;28;20313;-79
2023/01/11 04:24:30;;;;;;;5.88;3.78;;;11.70;99.90;;;;;;5081626;28;20036;-79
2023/01/11 04:26:55;;;;;;;7.03;3.63;;;11.60;99.90;;;;;;5081035;28;20063;-80
2023/01/11 04:32:33;;;;;;;8.43;3.58;;;11.40;99.90;;;;;;5025313;28;20103;-81
2023/01/11 04:34:59;;;;;;;13.35;3.70;;;11.70;99.90;;;;;;5030766;28;20317;-80
2023/01/11 04:37:24;;;;;;;9.07;3.85;;;11.40;99.90;;;;;;5063018;28;20060;-79
2023/01/11 04:39:50;;;;;;;12.50;4.90;;;11.40;99.90;;;;;;5042638;28;20024;-81
2023/01/11 04:42:18;;;;;;;8.02;2.88;;;11.50;99.90;;;;;;5048475;28;20043;-80
2023/01/11 04:44:48;;;;;;;6.88;2.35;;;11.30;99.90;;;;;;5084002;28;20099;-80
2023/01/11 04:47:16;;;;;;;8.00;2.70;;;10.90;99.90;;;;;;5080841;28;20028;-80
2023/01/11 04:49:41;;;;;;;6.75;1.83;;;10.80;99.90;;;;;;5081656;28;20028;-77
2023/01/11 04:52:39;;;;;;;6.32;1.92;;;10.80;99.90;;;;;;5062125;28;20041;-79
2023/01/11 04:55:08;;;;;;;7.03;1.77;;;10.80;99.90;;;;;;5071204;28;20043;-78
2023/01/11 04:57:34;;;;;;;4.68;1.60;;;10.30;99.90;;;;;;5064442;28;20032;-77
2023/01/11 04:59:59;;;;;;;6.70;1.77;;;10.60;99.90;;;;;;5063647;28;20293;-78
2023/01/11 05:02:25;;;;;;;9.38;1.60;;;10.20;99.90;;;;;;5066444;28;20037;-78
2023/01/11 05:04:50;;;;;;;7.88;1.67;;;10.50;99.90;;;;;;5050084;28;20070;-78
2023/01/11 05:07:16;;;;;;;6.45;1.60;;;10.30;99.90;;;;;;5060178;28;20305;-78
2023/01/11 05:09:42;;;;;;;5.03;1.77;;;10.20;99.90;;;;;;5063749;28;20089;-77
2023/01/11 05:12:07;;;;;;;7.75;2.00;;;10.60;99.90;;;;;;5097760;28;20051;-78
2023/01/11 05:14:33;;;;;;;10.55;1.90;;;10.10;99.90;;;;;;5098753;28;20032;-78
2023/01/11 05:16:59;;;;;;;9.93;2.42;;;10.40;99.90;;;;;;5064583;28;20063;-80
2023/01/11 05:19:25;;;;;;;8.38;2.03;;;10.10;99.90;;;;;;5081862;28;20031;-80
2023/01/11 05:21:50;;;;;;;4.43;1.65;;;10.20;99.90;;;;;;5080531;28;20055;-80
2023/01/11 05:24:16;;;;;;;8.25;1.60;;;10.10;99.90;;;;;;5083068;28;20040;-80
2023/01/11 05:26:43;;;;;;;4.38;1.70;;;10.10;99.90;;;;;;5068852;28;20074;-81
2023/01/11 05:29:15;;;;;;;5.95;1.70;;;10.50;99.90;;;;;;5086384;28;20031;-79
2023/01/11 05:31:41;;;;;;;9.10;2.40;;;10.60;99.90;;;;;;5079064;28;20144;-79
2023/01/11 05:34:08;;;;;;;9.32;2.85;;;10.70;99.90;;;;;;5064568;28;20035;-80
2023/01/11 05:36:34;;;;;;;10.15;2.75;;;10.70;99.90;;;;;;5102844;28;20059;-81
2023/01/11 05:39:01;;;;;;;8.20;2.85;;;10.40;99.90;;;;;;5069529;28;20069;-81
2023/01/11 05:41:27;;;;;;;9.63;2.78;;;10.60;99.90;;;;;;5084950;28;20039;-79
2023/01/11 05:46:39;;;;;;;;;;;10.40;99.90;;;;;;5093654;28;20043;-81
2023/01/11 05:49:05;;;;;;;10.55;2.47;;;10.50;99.90;;;;;;5066196;28;19913;-82
2023/01/11 05:51:32;;;;;;;11.48;2.60;;;10.60;99.90;;;;;;5066230;28;20024;-82
2023/01/11 05:53:58;;;;;;;8.15;2.28;;;10.90;99.90;;;;;;5082556;28;20373;-83
2023/01/11 05:56:24;;;;;;;12.00;2.25;;;10.50;99.90;;;;;;5085499;28;20050;-83
2023/01/11 05:58:52;;;;;;;11.52;2.00;;;10.80;99.90;;;;;;5066857;28;20024;-82
2023/01/11 06:01:19;;;;;;;10.77;2.10;;;10.60;99.90;;;;;;5081964;28;20418;-82
2023/01/11 06:03:45;;;;;;;17.92;2.38;;;10.70;99.90;;;;;;5080921;28;20185;-82
2023/01/11 06:06:12;;;;;;;10.05;2.63;;;10.30;99.90;;;;;;5077114;28;20039;-82
2023/01/11 06:08:37;;;;;;;10.48;2.30;;;10.60;99.90;;;;;;5085281;28;20031;-81
2023/01/11 06:11:03;;;;;;;12.52;2.10;;;10.40;99.90;;;;;;5085426;28;20024;-82
2023/01/11 06:13:29;;;;;;;9.32;2.13;;;10.60;99.90;;;;;;5047119;28;20032;-81
2023/01/11 06:15:59;;;;;;;18.40;3.05;;;10.50;99.90;;;;;;5056439;28;20104;-80
2023/01/11 06:18:27;;;;;;;17.38;2.63;;;10.10;99.90;;;;;;5098850;28;20148;-80
2023/01/11 06:20:54;;;;;;;15.25;3.67;;;10.20;99.90;;;;;;5061001;28;20076;-80
2023/01/11 06:23:20;;;;;;;12.70;3.15;;;10.20;99.90;;;;;;5074880;28;20075;-78
2023/01/11 06:25:46;;;;;;;15.57;3.20;;;10.50;99.90;;;;;;5100968;28;20056;-79
2023/01/11 06:28:13;;;;;;;20.95;3.97;;;10.10;99.90;;;;;;5083513;28;20062;-78
2023/01/11 06:30:39;;;;;;;17.10;3.13;;;10.10;99.90;;;;;;5080084;28;20100;-81
2023/01/11 06:33:05;;;;;;;15.52;2.47;;;10.10;99.90;;;;;;5083015;28;20127;-80
2023/01/11 06:35:42;;;;;;;16.73;2.55;;;10.40;99.90;;;;;;5064642;28;20033;-79
2023/01/11 06:38:12;;;;;;;20.55;3.45;;;10.10;99.90;;;;;;5099806;28;20061;-80
2023/01/11 06:40:39;;;;;;;18.15;3.70;;;10.10;99.90;;;;;;5100954;28;20039;-79
2023/01/11 06:43:06;;;;;;;19.80;4.70;;;10.20;99.90;;;;;;5090001;28;20214;-78
2023/01/11 06:45:32;;;;;;;13.02;2.70;;;10.50;99.90;;;;;;5083247;28;20035;-77
2023/01/11 06:47:58;;;;;;;16.92;3.85;;;10.30;99.90;;;;;;5095918;28;20037;-68
2023/01/11 06:50:24;;;;;;;18.73;3.05;;;10.30;99.90;;;;;;5080647;28;20041;-78
2023/01/11 06:52:54;;;;;;;13.25;2.80;;;10.30;99.90;;;;;;5065119;28;20063;-77
2023/01/11 06:55:21;;;;;;;18.70;2.95;;;10.30;99.90;;;;;;5061794;28;20032;-79
2023/01/11 06:57:47;;;;;;;16.67;3.00;;;10.10;99.90;;;;;;5065244;28;20102;-80
2023/01/11 07:00:13;;;;;;;15.95;2.70;;;10.00;99.90;;;;;;5065708;28;20028;-79
2023/01/11 07:02:39;;;;;;;14.23;2.85;;;10.00;99.90;;;;;;5079776;28;20020;-81
2023/01/11 07:05:05;;;;;;;17.45;2.38;;;10.50;99.90;;;;;;5066664;28;20032;-80
2023/01/11 07:07:30;;;;;;;20.20;2.97;;;10.20;99.90;;;;;;5084011;28;20049;-79
2023/01/11 07:09:56;;;;;;;16.42;3.17;;;10.00;99.90;;;;;;5067450;28;20331;-79
2023/01/11 07:12:22;;;;;;;17.98;2.90;;;10.10;99.90;;;;;;5099642;28;20035;-79
2023/01/11 07:14:47;;;;;;;19.00;2.63;;;10.50;99.90;;;;;;5031559;28;20040;-79
2023/01/11 07:17:13;;;;;;;16.45;2.85;;;10.20;99.90;;;;;;5073187;28;20289;-79
2023/01/11 07:19:39;;;;;;;16.50;2.53;;;10.10;99.90;;;;;;5048356;28;20032;-80
2023/01/11 07:22:14;;;;;;;;;;;;;;;;;;;;;
2023/01/11 07:24:40;;;;;;;15.73;3.40;;;10.30;99.90;;;;;;5082412;28;20036;-78
2023/01/11 07:27:06;;;;;;;14.32;3.25;;;10.30;99.90;;;;;;5064434;28;20290;-74
2023/01/11 07:29:32;;;;;;;13.27;2.13;;;10.10;99.90;;;;;;5098506;28;20020;-80
2023/01/11 07:31:58;;;;;;;10.13;2.15;;;10.30;99.90;;;;;;5063416;28;20340;-79
2023/01/11 07:34:24;;;;;;;12.23;2.47;;;9.70;99.90;;;;;;5046101;28;20067;-78
2023/01/11 07:36:52;;;;;;;18.27;2.53;;;10.30;99.90;;;;;;5047526;28;20028;-79
2023/01/11 07:39:17;;;;;;;11.55;2.30;;;9.70;99.90;;;;;;5096837;28;20392;-78
2023/01/11 07:44:27;;;;;;;13.30;2.20;;;9.70;99.90;;;;;;5078830;28;20040;-78
2023/01/11 07:46:53;;;;;;;13.55;2.75;;;9.80;99.90;;;;;;5061248;28;20332;-79
2023/01/11 07:49:18;;;;;;;13.23;2.03;;;9.70;99.90;;;;;;5081666;28;20291;-78
2023/01/11 07:51:44;;;;;;;9.43;2.75;;;9.70;99.90;;;;;;5100295;28;20044;-78
2023/01/11 07:54:10;;;;;;;11.30;2.42;;;9.80;99.90;;;;;;5065532;28;20093;-77
2023/01/11 07:56:35;;;;;;;15.07;2.22;;;9.80;99.90;;;;;;5091159;28;20077;-78
2023/01/11 07:59:01;;;;;;;15.50;2.55;;;9.60;99.90;;;;;;5096454;28;20031;-73
2023/01/11 08:01:27;;;;;;;11.13;2.20;;;9.70;99.90;;;;;;5070178;28;20101;-78
2023/01/11 08:03:53;;;;;;;12.68;2.20;;;10.10;99.90;;;;;;5078117;28;20066;-79
2023/01/11 08:06:20;;;;;;;9.13;2.03;;;10.30;99.90;;;;;;5062570;28;20082;-78
2023/01/11 08:08:46;;;;;;;12.90;2.65;;;10.00;99.90;;;;;;5080991;28;20028;-79
2023/01/11 08:16:40;;;;;;;14.25;2.75;;;10.20;99.90;;;;;;5078954;28;20142;-79
2023/01/11 08:19:06;;;;;;;7.97;2.25;;;9.60;99.90;;;;;;5080114;28;20032;-78
2023/01/11 08:21:31;;;;;;;12.40;2.63;;;9.60;99.90;;;;;;5100127;28;20023;-78
2023/01/11 08:23:58;;;;;;;15.60;2.38;;;10.00;99.90;;;;;;5048002;28;20119;-78
2023/01/11 08:26:25;;;;;;;11.10;2.13;;;10.00;99.90;;;;;;5083844;28;20206;-78
2023/01/11 08:36:57;;;;;;;14.93;2.33;;;9.30;99.90;;;;;;5036861;28;20382;-78
2023/01/11 08:39:53;;;;;;;10.68;2.55;;;9.60;99.90;;;;;;5029984;28;20066;-77
2023/01/11 09:03:28;;;;;;;;;;;;;;;;;;;;;
2023/01/11 09:20:32;;;;;;;13.93;3.40;;;9.20;99.90;;;;;;5174598;27;20393;-76
2023/01/11 09:22:58;;;;;;;9.80;2.00;;;10.00;99.90;;;;;;5148386;27;20047;-76
2023/01/11 09:25:24;;;;;;;9.77;2.45;;;9.40;99.90;;;;;;5115130;27;20031;-77
2023/01/11 09:27:50;;;;;;;10.68;1.92;;;9.40;99.90;;;;;;5123456;28;20306;-77
2023/01/11 09:30:22;;;;;;;12.30;2.03;;;9.30;99.90;;;;;;5112059;27;20023;-76
2023/01/11 09:32:51;;;;;;;8.32;2.42;;;9.30;99.90;;;;;;5129893;28;20366;-76
2023/01/11 09:44:00;;;;;;;;;;;;;;;;;;;;;
2023/01/11 10:02:06;;;;;;;;;;;;;;;;;;;;;
2023/01/11 10:05:27;;;;;;;;;;;;;;;;;;;;;
2023/01/11 10:28:09;;;;;;;3.28;1.65;;;11.40;99.90;;;;;;4850359;29;20073;-76
2023/01/11 10:35:26;;;;;;;;;;;;;;;;;;;;;
2023/01/11 10:50:23;;;;;;;;;;;;;;;;;;;;;
2023/01/11 10:53:47;;;;;;;8.35;1.70;;;13.00;99.90;;;;;;4960329;28;20047;-76
2023/01/11 11:01:17;;;;;;;;;;;;;;;;;;;;;
2023/01/11 11:08:45;;;;;;;6.72;1.50;;;11.70;99.90;;;;;;5025797;28;20036;-76
2023/01/11 11:12:26;;;;;;;;;;;;;;;;;;;;;
2023/01/11 11:19:29;;;;;;;10.85;2.00;;;10.90;99.90;;;;;;4984742;28;20141;-76
2023/01/11 11:38:10;;;;;;;8.95;2.15;;;10.10;99.90;;;;;;4801801;29;20080;-76
2023/01/11 11:40:59;;;;;;;15.57;2.40;;;10.90;99.90;;;;;;4768419;30;20087;-76
2023/01/11 11:47:59;;;;;;;8.18;2.20;;;10.90;99.90;;;;;;4918363;29;20076;-75
2023/01/11 11:51:14;;;;;;;9.85;2.45;;;9.80;99.90;;;;;;4891975;29;20055;-75
2023/01/11 11:57:33;;;;;;;10.45;2.42;;;11.30;99.90;;;;;;5064829;28;20046;-74
2023/01/11 12:00:03;;;;;;;14.93;2.55;;;11.40;99.90;;;;;;5095676;28;20146;-74
2023/01/11 12:02:31;;;;;;;10.10;2.10;;;11.20;99.90;;;;;;5078739;28;20031;-76
2023/01/11 12:05:03;;;;;;;10.50;2.00;;;11.30;99.90;;;;;;5093134;28;20133;-76
2023/01/11 12:07:50;;;;;;;10.82;3.33;;;11.60;99.90;;;;;;5097657;28;20043;-74
2023/01/11 12:10:19;;;;;;;12.32;2.65;;;11.10;99.90;;;;;;5089880;28;20081;-74
2023/01/11 12:12:55;;;;;;;14.18;2.65;;;11.10;99.90;;;;;;5070519;28;20030;-75
2023/01/11 12:15:27;;;;;;;10.25;2.17;;;10.80;99.90;;;;;;5077981;28;20093;-75
2023/01/11 12:17:53;;;;;;;9.15;1.90;;;10.90;99.90;;;;;;5081843;28;20248;-75
2023/01/11 12:20:22;;;;;;;12.18;2.85;;;11.00;99.90;;;;;;5099759;27;20043;-75
2023/01/11 12:23:06;;;;;;;9.05;2.55;;;11.10;99.90;;;;;;5121576;27;20231;-75
2023/01/11 12:25:43;;;;;;;14.63;3.23;;;11.00;99.90;;;;;;5122864;27;20031;-75
2023/01/11 12:28:33;;;;;;;7.97;2.28;;;10.80;99.90;;;;;;5103130;27;20034;-76
2023/01/11 12:31:08;;;;;;;16.10;2.50;;;10.80;99.90;;;;;;5122501;27;20265;-76
2023/01/11 12:34:22;;;;;;;7.85;2.70;;;10.50;99.90;;;;;;5109559;27;20122;-74
2023/01/11 12:37:26;;;;;;;10.48;2.45;;;10.20;99.90;;;;;;5121268;27;20028;-75
2023/01/11 12:40:08;;;;;;;11.07;2.30;;;10.20;99.90;;;;;;5069073;27;20376;-75
2023/01/11 12:42:49;;;;;;;16.25;3.00;;;10.10;99.90;;;;;;5104853;28;20034;-75
2023/01/11 12:45:30;;;;;;;14.82;2.83;;;10.10;99.90;;;;;;5117930;27;20034;-75
2023/01/11 12:48:15;;;;;;;11.40;2.47;;;10.10;99.90;;;;;;5118787;27;20046;-76
2023/01/11 12:50:52;;;;;;;17.40;3.43;;;10.10;99.90;;;;;;5104262;28;20032;-75
2023/01/11 12:53:24;;;;;;;12.30;2.35;;;10.00;99.90;;;;;;5119274;27;20460;-75
2023/01/11 12:56:16;;;;;;;19.35;2.90;;;10.00;99.90;;;;;;5104064;27;20068;-75
2023/01/11 12:58:53;;;;;;;16.70;2.53;;;10.00;99.90;;;;;;5125225;27;20034;-76
2023/01/11 13:01:38;;;;;;;17.38;2.72;;;9.90;99.90;;;;;;5114048;28;20031;-75
2023/01/11 13:04:37;;;;;;;11.98;2.40;;;9.90;99.90;;;;;;5127739;27;20051;-75
2023/01/11 13:07:22;;;;;;;11.57;2.20;;;10.00;99.90;;;;;;5109738;28;20039;-75
2023/01/11 13:10:14;;;;;;;12.07;2.40;;;10.20;99.90;;;;;;5134936;28;20254;-75
2023/01/11 13:12:52;;;;;;;13.38;2.25;;;10.10;99.90;;;;;;5124195;28;20073;-75
2023/01/11 13:15:45;;;;;;;9.65;2.35;;;10.10;99.90;;;;;;5128112;28;20049;-75
2023/01/11 13:18:23;;;;;;;10.05;2.45;;;9.90;99.90;;;;;;5112080;28;20031;-76
2023/01/11 13:20:56;;;;;;;15.40;3.00;;;10.00;99.90;;;;;;5102947;28;20180;-76
2023/01/11 13:23:51;;;;;;;14.60;3.00;;;9.90;99.90;;;;;;5135826;28;20415;-75
2023/01/11 13:26:22;;;;;;;16.58;3.10;;;9.90;99.90;;;;;;5119128;28;20043;-75
2023/01/11 13:28:56;;;;;;;11.15;3.17;;;9.80;99.90;;;;;;5123728;28;20060;-75
2023/01/11 13:31:23;;;;;;;26.00;4.38;;;9.80;99.90;;;;;;5126173;28;20280;-75
2023/01/11 13:33:57;;;;;;;17.73;2.75;;;9.70;99.90;;;;;;5090810;28;20030;-75
2023/01/11 13:36:37;;;;;;;15.50;3.35;;;9.70;99.90;;;;;;5109916;28;21325;-75
2023/01/11 13:39:21;;;;;;;11.63;3.00;;;9.70;99.90;;;;;;5118722;28;20088;-76
2023/01/11 13:41:53;;;;;;;15.38;2.58;;;9.70;99.90;;;;;;5118196;28;20255;-75
2023/01/11 13:44:41;;;;;;;13.65;2.97;;;9.60;99.90;;;;;;5111357;28;20038;-75
2023/01/11 13:47:13;;;;;;;13.80;2.50;;;9.60;99.90;;;;;;5104715;28;20080;-75
2023/01/11 13:50:01;;;;;;;15.02;2.97;;;9.60;99.90;;;;;;5113657;28;20042;-76
2023/01/11 13:52:43;;;;;;;12.95;2.83;;;9.50;99.90;;;;;;5110132;28;20110;-75
2023/01/11 13:59:37;;;;;;;15.70;3.00;;;9.80;99.90;;;;;;5067627;28;20041;-75
2023/01/11 14:02:16;;;;;;;22.95;3.30;;;9.60;99.90;;;;;;5099363;27;20046;-76
2023/01/11 14:05:14;;;;;;;12.05;2.45;;;9.70;99.90;;;;;;5126323;27;20133;-76
2023/01/11 14:07:51;;;;;;;16.80;2.70;;;9.70;99.90;;;;;;5133560;27;20031;-75
2023/01/11 14:10:39;;;;;;;15.23;2.83;;;9.60;99.90;;;;;;5130199;27;20031;-76
2023/01/11 14:16:43;;;;;;;16.33;2.75;;;9.60;99.90;;;;;;5120797;27;20039;-76
2023/01/11 14:19:24;;;;;;;15.15;2.65;;;9.50;99.90;;;;;;5114854;27;20043;-76
2023/01/11 14:22:26;;;;;;;15.43;3.00;;;9.50;99.90;;;;;;5134084;27;20085;-76
2023/01/11 14:24:56;;;;;;;14.10;2.80;;;10.70;99.90;;;;;;5124738;27;20155;-77
2023/01/11 14:27:35;;;;;;;13.80;3.53;;;9.40;99.90;;;;;;5122437;27;20072;-77
2023/01/11 14:30:31;;;;;;;17.65;2.72;;;9.40;99.90;;;;;;5127437;27;20084;-78
2023/01/11 14:33:27;;;;;;;16.83;4.53;;;9.40;99.90;;;;;;5130501;27;20023;-76
2023/01/11 14:36:05;;;;;;;19.20;2.78;;;9.40;99.90;;;;;;5127554;27;20187;-75
2023/01/11 14:39:12;;;;;;;16.45;3.78;;;9.50;99.90;;;;;;5125259;27;20123;-76
2023/01/11 14:41:59;;;;;;;15.50;2.67;;;9.50;99.90;;;;;;5127375;27;20035;-77
2023/01/11 14:44:40;;;;;;;15.07;2.70;;;9.50;99.90;;;;;;5118931;27;20084;-76
2023/01/11 14:47:15;;;;;;;14.48;3.03;;;9.40;99.90;;;;;;5108528;27;20038;-76
2023/01/11 14:50:02;;;;;;;16.42;2.72;;;9.30;99.90;;;;;;5124509;27;20125;-76
2023/01/11 14:52:32;;;;;;;15.13;3.35;;;9.20;99.90;;;;;;5106899;27;20092;-76
2023/01/11 14:55:03;;;;;;;20.80;3.95;;;9.10;99.90;;;;;;5110745;27;20098;-76
2023/01/11 14:57:35;;;;;;;36.75;10.70;;;9.00;99.90;;;;;;5110892;27;20031;-76
2023/01/11 15:00:01;;;;;;;15.18;2.88;;;9.00;99.90;;;;;;5107158;27;20102;-76
2023/01/11 15:02:28;;;;;;;13.75;3.20;;;9.00;99.90;;;;;;5093788;27;20027;-77
2023/01/11 15:04:54;;;;;;;15.30;2.55;;;9.00;99.90;;;;;;5121498;27;20043;-76
2023/01/11 15:07:40;;;;;;;20.17;3.72;;;9.00;99.90;;;;;;5111135;27;20045;-76
2023/01/11 15:10:25;;;;;;;13.68;2.97;;;7.50;99.90;;;;;;5125348;27;20030;-76
2023/01/11 15:12:55;;;;;;;22.48;5.15;;;8.80;99.90;;;;;;5124543;27;20038;-76
2023/01/11 15:18:16;;;;;;;15.80;3.60;;;8.80;99.90;;;;;;5120495;27;20015;-78
2023/01/11 15:18:22;;;;;;;13.30;3.10;;;8.70;99.90;;;;;;5120302;27;20107;-77
2023/01/11 15:21:16;;;;;;;13.27;3.47;;;8.70;99.90;;;;;;5110117;27;20334;-79
2023/01/11 15:23:50;;;;;;;16.77;3.85;;;8.70;99.90;;;;;;5100596;27;20039;-77
2023/01/11 15:26:18;;;;;;;13.05;2.58;;;8.70;99.90;;;;;;5122894;27;20111;-75
2023/01/11 15:28:50;;;;;;;21.05;3.20;;;8.70;99.90;;;;;;5119132;27;20027;-76
2023/01/11 15:31:46;;;;;;;16.67;3.35;;;8.60;99.90;;;;;;5107331;27;20061;-76
2023/01/11 15:34:28;;;;;;;20.67;4.00;;;8.60;99.90;;;;;;5122565;27;20236;-75
2023/01/11 15:37:18;;;;;;;19.27;3.55;;;8.60;99.90;;;;;;5107177;27;20115;-75
2023/01/11 15:39:59;;;;;;;14.43;2.83;;;8.50;99.90;;;;;;5106865;27;20049;-76
2023/01/11 15:42:50;;;;;;;20.00;4.20;;;8.40;99.90;;;;;;5105804;27;20027;-75
2023/01/11 15:48:58;;;;;;;20.63;3.83;;;8.40;99.90;;;;;;5120166;27;20047;-76
2023/01/11 15:51:32;;;;;;;10.47;3.67;;;8.40;99.90;;;;;;5078970;27;20321;-76
2023/01/11 15:54:30;;;;;;;14.70;3.50;;;8.30;99.90;;;;;;5108696;27;20300;-77
2023/01/11 15:57:16;;;;;;;13.23;3.63;;;8.30;99.90;;;;;;5107564;27;20046;-75
2023/01/11 16:00:20;;;;;;;15.40;3.65;;;8.30;99.90;;;;;;5108192;27;20320;-75
2023/01/11 16:03:22;;;;;;;19.00;3.58;;;8.30;99.90;;;;;;5106581;27;20046;-76
2023/01/11 16:06:16;;;;;;;17.60;3.58;;;8.30;99.90;;;;;;5106630;27;20034;-76
2023/01/11 16:08:54;;;;;;;18.38;3.35;;;8.20;99.90;;;;;;5123687;27;20349;-77
2023/01/11 16:11:26;;;;;;;18.52;2.80;;;8.20;99.90;;;;;;5107439;27;20046;-76
2023/01/11 16:14:01;;;;;;;19.20;5.00;;;8.20;99.90;;;;;;5121478;27;20066;-77
2023/01/11 16:16:41;;;;;;;17.35;3.60;;;8.20;99.90;;;;;;5115613;27;20082;-76
2023/01/11 16:19:16;;;;;;;15.35;4.10;;;8.30;99.90;;;;;;5111696;27;20060;-76
2023/01/11 16:21:46;;;;;;;16.38;4.22;;;8.30;99.90;;;;;;5126096;27;21441;-76
2023/01/11 16:24:24;;;;;;;22.77;4.93;;;8.20;99.90;;;;;;5135786;27;20230;-76
2023/01/11 16:26:57;;;;;;;22.25;4.43;;;8.30;99.90;;;;;;5115749;28;20035;-75
2023/01/11 16:29:26;;;;;;;21.55;6.45;;;8.30;99.90;;;;;;5124825;27;20062;-77
2023/01/11 16:31:59;;;;;;;16.95;4.32;;;8.30;99.90;;;;;;5132528;27;20031;-77
2023/01/11 16:34:27;;;;;;;16.48;3.42;;;8.20;99.90;;;;;;5117868;27;20052;-76
2023/01/11 16:36:56;;;;;;;19.23;3.70;;;8.20;99.90;;;;;;5121357;27;20172;-76